createdAt,value
2018-03-19T00:01:18.071Z,-2.30
2018-03-19T00:03:44.390Z,-2.30
2018-03-19T00:06:11.509Z,-2.50
2018-03-19T00:08:38.667Z,-2.40
2018-03-19T00:11:06.091Z,-2.50
2018-03-19T00:13:33.168Z,-2.30
2018-03-19T00:15:59.556Z,-2.30
2018-03-19T00:18:26.040Z,-2.20
2018-03-19T00:20:53.100Z,-2.30
2018-03-19T00:23:19.455Z,-2.30
2018-03-19T00:25:45.834Z,-2.20
2018-03-19T00:28:12.140Z,-2.30
2018-03-19T00:30:38.496Z,-2.20
2018-03-19T00:33:05.531Z,-2.20
2018-03-19T00:35:31.897Z,-2.20
2018-03-19T00:37:58.223Z,-2.10
2018-03-19T00:40:24.601Z,-2.20
2018-03-19T00:42:51.694Z,-2.30
2018-03-19T00:45:21.240Z,-2.30
2018-03-19T00:47:48.314Z,-2.50
2018-03-19T00:50:14.648Z,-2.50
2018-03-19T00:52:41.015Z,-2.50
2018-03-19T00:55:08.108Z,-2.40
2018-03-19T00:57:35.446Z,-2.40
2018-03-19T01:00:01.804Z,-2.30
2018-03-19T01:02:28.886Z,-2.10
2018-03-19T01:04:55.277Z,-2.10
2018-03-19T01:07:21.593Z,-2.00
2018-03-19T01:09:47.937Z,-2.20
2018-03-19T01:12:14.403Z,-2.20
2018-03-19T01:14:41.483Z,-2.30
2018-03-19T01:17:07.848Z,-2.30
2018-03-19T01:19:35.188Z,-2.20
2018-03-19T01:22:01.503Z,-2.40
2018-03-19T01:24:27.820Z,-2.40
2018-03-19T01:26:54.920Z,-2.20
2018-03-19T01:29:21.954Z,-2.30
2018-03-19T01:31:49.012Z,-2.40
2018-03-19T01:34:15.428Z,-2.40
2018-03-19T01:36:41.748Z,-2.40
2018-03-19T01:39:08.096Z,-2.60
2018-03-19T01:41:35.509Z,-2.40
2018-03-19T01:44:02.600Z,-2.30
2018-03-19T01:46:28.921Z,-2.50
2018-03-19T01:48:55.287Z,-2.50
2018-03-19T01:51:21.657Z,-2.60
2018-03-19T01:53:48.726Z,-2.60
2018-03-19T01:56:15.161Z,-2.60
2018-03-19T01:58:41.487Z,-2.60
2018-03-19T02:01:07.896Z,-2.70
2018-03-19T02:03:35.947Z,-2.60
2018-03-19T02:06:03.051Z,-2.70
2018-03-19T02:08:29.415Z,-2.70
2018-03-19T02:10:56.491Z,-2.60
2018-03-19T02:13:22.820Z,-2.60
2018-03-19T02:15:49.184Z,-2.40
2018-03-19T02:18:16.230Z,-2.40
2018-03-19T02:20:43.301Z,-2.40
2018-03-19T02:23:09.745Z,-2.40
2018-03-19T02:25:36.783Z,-2.50
2018-03-19T02:28:04.007Z,-2.30
2018-03-19T02:30:30.375Z,-2.30
2018-03-19T02:32:57.426Z,-2.30
2018-03-19T02:35:23.763Z,-2.30
2018-03-19T02:37:50.289Z,-2.40
2018-03-19T02:40:17.361Z,-2.30
2018-03-19T02:42:44.420Z,-2.40
2018-03-19T02:45:11.572Z,-2.40
2018-03-19T02:47:37.884Z,-2.40
2018-03-19T02:50:04.223Z,-2.40
2018-03-19T02:52:32.068Z,-2.50
2018-03-19T02:54:59.148Z,-2.50
2018-03-19T02:57:25.478Z,-2.50
2018-03-19T02:59:52.594Z,-2.50
2018-03-19T03:02:18.989Z,-2.60
2018-03-19T03:04:46.814Z,-2.50
2018-03-19T03:07:13.187Z,-2.50
2018-03-19T03:09:39.528Z,-2.50
2018-03-19T03:12:06.173Z,-2.50
2018-03-19T03:14:32.507Z,-2.60
2018-03-19T03:16:59.583Z,-2.70
2018-03-19T03:19:25.889Z,-2.80
2018-03-19T03:21:52.209Z,-2.70
2018-03-19T03:24:18.542Z,-2.80
2018-03-19T03:26:45.019Z,-2.90
2018-03-19T03:29:12.766Z,-3.00
2018-03-19T03:31:39.093Z,-2.90
2018-03-19T03:34:06.780Z,-2.90
2018-03-19T03:36:33.839Z,-3.00
2018-03-19T03:39:00.578Z,-3.00
2018-03-19T03:41:27.049Z,-2.70
2018-03-19T03:43:54.104Z,-2.70
2018-03-19T03:46:20.434Z,-2.70
2018-03-19T03:48:47.931Z,-2.60
2018-03-19T03:51:14.315Z,-2.60
2018-03-19T03:53:40.683Z,-2.60
2018-03-19T03:56:07.026Z,-2.60
2018-03-19T03:58:33.325Z,-2.60
2018-03-19T04:00:59.703Z,-2.60
2018-03-19T04:03:26.025Z,-2.70
2018-03-19T04:05:52.751Z,-2.70
2018-03-19T04:08:19.310Z,-2.70
2018-03-19T04:10:45.650Z,-2.80
2018-03-19T04:13:12.700Z,-2.70
2018-03-19T04:15:39.049Z,-2.80
2018-03-19T04:18:06.303Z,-2.80
2018-03-19T04:20:32.622Z,-2.70
2018-03-19T04:22:59.708Z,-2.80
2018-03-19T04:25:26.079Z,-2.80
2018-03-19T04:27:52.393Z,-2.70
2018-03-19T04:30:18.736Z,-2.60
2018-03-19T04:32:45.099Z,-2.70
2018-03-19T04:35:12.272Z,-2.70
2018-03-19T04:37:39.345Z,-2.60
2018-03-19T04:40:06.127Z,-2.70
2018-03-19T04:42:32.499Z,-2.60
2018-03-19T04:44:58.859Z,-2.50
2018-03-19T04:47:25.215Z,-2.50
2018-03-19T04:49:52.324Z,-2.40
2018-03-19T04:52:18.671Z,-2.40
2018-03-19T04:54:44.985Z,-2.60
2018-03-19T04:57:11.330Z,-2.70
2018-03-19T04:59:37.682Z,-2.80
2018-03-19T05:02:05.383Z,-2.90
2018-03-19T05:04:31.718Z,-2.90
2018-03-19T05:06:58.072Z,-2.90
2018-03-19T05:09:24.515Z,-2.80
2018-03-19T05:11:50.851Z,-2.80
2018-03-19T05:14:17.907Z,-2.60
2018-03-19T05:16:45.022Z,-2.60
2018-03-19T05:19:11.436Z,-2.80
2018-03-19T05:21:37.765Z,-2.60
2018-03-19T05:24:05.632Z,-2.60
2018-03-19T05:26:32.925Z,-2.80
2018-03-19T05:29:00.033Z,-2.70
2018-03-19T05:31:28.174Z,-2.70
2018-03-19T05:33:55.266Z,-2.70
2018-03-19T05:36:22.334Z,-2.80
2018-03-19T05:38:50.983Z,-2.80
2018-03-19T05:41:18.070Z,-2.70
2018-03-19T05:43:44.478Z,-2.70
2018-03-19T05:46:10.889Z,-2.70
2018-03-19T05:48:37.327Z,-2.70
2018-03-19T05:51:03.760Z,-2.70
2018-03-19T05:53:30.910Z,-2.60
2018-03-19T05:55:57.315Z,-2.60
2018-03-19T05:58:24.585Z,-2.80
2018-03-19T06:00:51.690Z,-2.80
2018-03-19T06:03:18.889Z,-2.80
2018-03-19T06:05:45.346Z,-2.80
2018-03-19T06:08:12.485Z,-2.80
2018-03-19T06:10:38.958Z,-2.80
2018-03-19T06:13:06.549Z,-2.60
2018-03-19T06:15:33.027Z,-2.60
2018-03-19T06:17:59.466Z,-2.90
2018-03-19T06:20:25.933Z,-2.70
2018-03-19T06:22:54.108Z,-2.80
2018-03-19T06:25:21.290Z,-2.90
2018-03-19T06:27:47.774Z,-3.00
2018-03-19T06:30:14.873Z,-3.00
2018-03-19T06:32:41.480Z,-3.00
2018-03-19T06:35:07.948Z,-3.10
2018-03-19T06:37:34.371Z,-3.00
2018-03-19T06:40:01.551Z,-2.90
2018-03-19T06:42:28.026Z,-2.90
2018-03-19T06:44:54.432Z,-2.60
2018-03-19T06:47:22.031Z,-2.50
2018-03-19T06:49:49.572Z,-2.60
2018-03-19T06:52:15.990Z,-2.80
2018-03-19T06:54:42.446Z,-2.70
2018-03-19T06:57:10.582Z,-2.80
2018-03-19T06:59:38.785Z,-2.80
2018-03-19T07:02:06.377Z,-2.80
2018-03-19T07:04:32.738Z,-2.90
2018-03-19T07:06:59.147Z,-2.70
2018-03-19T07:09:25.655Z,-2.70
2018-03-19T07:11:52.950Z,-2.70
2018-03-19T07:14:19.494Z,-2.70
2018-03-19T07:16:45.994Z,-2.60
2018-03-19T07:19:12.420Z,-2.50
2018-03-19T07:21:39.879Z,-2.40
2018-03-19T07:24:07.065Z,-2.70
2018-03-19T07:26:33.589Z,-2.60
2018-03-19T07:29:00.817Z,-2.60
2018-03-19T07:31:32.105Z,-2.60
2018-03-19T07:33:58.991Z,-2.60
2018-03-19T07:36:25.453Z,-2.30
2018-03-19T07:38:51.885Z,-2.20
2018-03-19T07:41:20.300Z,-2.00
2018-03-19T07:46:39.809Z,-1.90
2018-03-19T07:49:07.312Z,-2.10
2018-03-19T07:51:33.947Z,-1.90
2018-03-19T07:54:01.217Z,-2.20
2018-03-19T07:56:28.438Z,-2.10
2018-03-19T07:58:54.851Z,-2.10
2018-03-19T08:01:21.274Z,-2.10
2018-03-19T08:03:47.722Z,-2.20
2018-03-19T08:06:14.205Z,-2.20
2018-03-19T08:08:40.650Z,-2.30
2018-03-19T08:11:07.091Z,-2.40
2018-03-19T08:13:33.672Z,-2.20
2018-03-19T08:16:00.595Z,-2.20
2018-03-19T08:18:27.202Z,-2.20
2018-03-19T08:20:53.665Z,-2.30
2018-03-19T08:23:20.824Z,-2.10
2018-03-19T08:25:47.318Z,-2.10
2018-03-19T08:28:14.574Z,-1.90
2018-03-19T08:30:41.776Z,-1.80
2018-03-19T08:33:08.997Z,-1.80
2018-03-19T08:35:36.986Z,-1.90
2018-03-19T08:38:03.386Z,-1.90
2018-03-19T08:40:29.905Z,-1.90
2018-03-19T08:42:56.432Z,-1.90
2018-03-19T08:45:22.974Z,-1.80
2018-03-19T08:47:49.494Z,-2.00
2018-03-19T08:50:19.956Z,-1.90
2018-03-19T08:52:47.137Z,-2.00
2018-03-19T08:55:13.570Z,-2.00
2018-03-19T08:57:40.262Z,-2.10
2018-03-19T09:00:06.706Z,-2.20
2018-03-19T09:02:33.928Z,-1.90
2018-03-19T09:05:01.330Z,-1.90
2018-03-19T09:07:27.772Z,-1.90
2018-03-19T09:09:54.912Z,-1.90
2018-03-19T09:12:22.171Z,-1.90
2018-03-19T09:14:48.717Z,-1.90
2018-03-19T09:17:15.136Z,-1.60
2018-03-19T09:19:41.709Z,-1.50
2018-03-19T09:22:08.143Z,-1.50
2018-03-19T09:24:35.333Z,-1.40
2018-03-19T09:27:02.565Z,-1.40
2018-03-19T09:29:29.894Z,-1.40
2018-03-19T09:31:56.388Z,-1.40
2018-03-19T09:34:22.884Z,-1.30
2018-03-19T09:36:50.043Z,-1.20
2018-03-19T09:39:16.485Z,-1.30
2018-03-19T09:41:45.121Z,-1.50
2018-03-19T09:44:11.541Z,-1.40
2018-03-19T09:46:39.987Z,-1.30
2018-03-19T09:49:06.378Z,-1.20
2018-03-19T09:51:33.498Z,-1.10
2018-03-19T09:53:59.963Z,-1.10
2018-03-19T09:56:26.378Z,-1.10
2018-03-19T09:58:54.583Z,-1.00
2018-03-19T10:01:21.888Z,-1.00
2018-03-19T10:03:48.331Z,-1.00
2018-03-19T10:06:15.778Z,-1.00
2018-03-19T10:08:44.192Z,-1.10
2018-03-19T10:11:10.739Z,-0.90
2018-03-19T10:13:37.172Z,-1.20
2018-03-19T10:16:03.586Z,-1.00
2018-03-19T10:18:30.048Z,-1.40
2018-03-19T10:20:56.562Z,-1.50
2018-03-19T10:23:23.084Z,-1.40
2018-03-19T10:25:49.488Z,-1.50
2018-03-19T10:28:16.654Z,-1.30
2018-03-19T10:30:44.144Z,-1.40
2018-03-19T10:33:11.233Z,-1.20
2018-03-19T10:35:48.786Z,-1.20
2018-03-19T10:38:15.185Z,-1.20
2018-03-19T10:40:41.669Z,-1.20
2018-03-19T10:43:08.115Z,-1.00
2018-03-19T10:45:34.522Z,-1.10
2018-03-19T10:48:00.911Z,-1.00
2018-03-19T10:50:28.179Z,-1.20
2018-03-19T10:52:55.571Z,-1.20
2018-03-19T10:55:22.163Z,-1.00
2018-03-19T10:57:49.437Z,-0.70
2018-03-19T11:00:16.683Z,-0.40
2018-03-19T11:02:50.203Z,-0.50
2018-03-19T11:05:23.734Z,-0.30
2018-03-19T11:07:57.257Z,-0.20
2018-03-19T11:10:30.607Z,-0.20
2018-03-19T11:12:57.018Z,-0.10
2018-03-19T11:15:24.288Z,0.00
2018-03-19T11:17:50.771Z,-0.10
2018-03-19T11:20:17.235Z,-0.10
2018-03-19T11:22:44.332Z,-0.20
2018-03-19T11:25:11.796Z,-0.30
2018-03-19T11:27:39.027Z,-0.10
2018-03-19T11:30:06.221Z,-0.10
2018-03-19T11:32:32.745Z,-0.10
2018-03-19T11:34:59.177Z,-0.10
2018-03-19T11:37:25.578Z,0.00
2018-03-19T11:39:53.033Z,0.10
2018-03-19T11:42:20.821Z,0.10
2018-03-19T11:44:48.124Z,0.30
2018-03-19T11:47:15.952Z,0.30
2018-03-19T11:49:44.183Z,0.10
2018-03-19T11:52:10.775Z,0.00
2018-03-19T11:54:38.049Z,-0.20
2018-03-19T11:57:06.492Z,-0.20
2018-03-19T11:59:33.308Z,-0.10
2018-03-19T12:01:59.716Z,-0.10
2018-03-19T12:04:26.831Z,-0.10
2018-03-19T12:06:54.171Z,0.00
2018-03-19T12:09:21.450Z,0.00
2018-03-19T12:11:48.808Z,0.20
2018-03-19T12:14:15.294Z,0.10
2018-03-19T12:16:41.703Z,0.10
2018-03-19T12:19:08.202Z,0.10
2018-03-19T12:24:38.000Z,0.20
2018-03-19T12:27:04.505Z,0.30
2018-03-19T12:29:30.922Z,0.40
2018-03-19T12:31:57.376Z,0.40
2018-03-19T12:34:23.793Z,0.40
2018-03-19T12:36:50.347Z,0.30
2018-03-19T12:39:17.516Z,0.40
2018-03-19T12:41:44.651Z,0.60
2018-03-19T12:44:11.097Z,0.60
2018-03-19T12:46:37.555Z,0.60
2018-03-19T12:49:04.765Z,0.60
2018-03-19T12:51:31.222Z,0.60
2018-03-19T12:53:57.656Z,0.70
2018-03-19T12:56:25.048Z,0.60
2018-03-19T12:58:51.520Z,0.40
2018-03-19T13:01:19.110Z,0.40
2018-03-19T13:03:47.665Z,0.50
2018-03-19T13:06:14.323Z,0.50
2018-03-19T13:08:40.833Z,0.60
2018-03-19T13:11:07.951Z,0.70
2018-03-19T13:13:35.467Z,0.60
2018-03-19T13:16:02.035Z,0.60
2018-03-19T13:18:29.498Z,0.50
2018-03-19T13:20:58.113Z,0.50
2018-03-19T13:23:24.717Z,0.50
2018-03-19T13:25:51.239Z,0.60
2018-03-19T13:28:17.819Z,0.60
2018-03-19T13:30:44.328Z,0.50
2018-03-19T13:33:11.129Z,0.70
2018-03-19T13:35:37.689Z,0.80
2018-03-19T13:38:05.125Z,0.40
2018-03-19T13:40:31.659Z,0.40
2018-03-19T13:42:58.192Z,0.40
2018-03-19T13:45:27.530Z,0.70
2018-03-19T13:47:54.063Z,0.70
2018-03-19T13:50:20.721Z,0.80
2018-03-19T13:52:48.376Z,1.00
2018-03-19T13:55:15.070Z,0.90
2018-03-19T13:57:41.616Z,0.90
2018-03-19T14:00:09.039Z,1.10
2018-03-19T14:02:35.618Z,1.10
2018-03-19T14:05:03.473Z,1.30
2018-03-19T14:07:30.073Z,1.30
2018-03-19T14:09:56.728Z,1.20
2018-03-19T14:12:23.700Z,1.10
2018-03-19T14:14:50.962Z,0.80
2018-03-19T14:17:19.205Z,0.80
2018-03-19T14:19:45.788Z,0.50
2018-03-19T14:22:12.266Z,0.50
2018-03-19T14:24:43.742Z,0.30
2018-03-19T14:27:11.379Z,0.10
2018-03-19T14:29:37.978Z,0.00
2018-03-19T14:32:04.983Z,0.10
2018-03-19T14:34:32.544Z,0.10
2018-03-19T14:36:59.041Z,0.10
2018-03-19T14:39:25.510Z,0.20
2018-03-19T14:41:52.149Z,0.30
2018-03-19T14:44:18.891Z,0.40
2018-03-19T14:46:46.251Z,0.30
2018-03-19T14:49:12.944Z,0.30
2018-03-19T14:51:39.598Z,0.30
2018-03-19T14:54:06.959Z,0.40
2018-03-19T14:56:33.509Z,0.40
2018-03-19T14:58:59.972Z,0.40
2018-03-19T15:01:26.765Z,0.40
2018-03-19T15:03:55.580Z,0.50
2018-03-19T15:06:22.232Z,0.40
2018-03-19T15:08:48.726Z,0.30
2018-03-19T15:11:16.072Z,0.10
2018-03-19T15:13:42.571Z,0.10
2018-03-19T15:16:09.173Z,0.10
2018-03-19T15:18:35.763Z,-0.10
2018-03-19T15:21:02.777Z,-0.20
2018-03-19T15:23:29.282Z,-0.10
2018-03-19T15:25:55.853Z,-0.20
2018-03-19T15:28:22.290Z,-0.30
2018-03-19T15:30:48.748Z,-0.30
2018-03-19T15:33:17.704Z,-0.50
2018-03-19T15:35:44.195Z,-0.50
2018-03-19T15:38:10.674Z,-0.40
2018-03-19T15:40:40.314Z,-0.30
2018-03-19T15:43:07.810Z,-0.30
2018-03-19T15:45:34.259Z,-0.20
2018-03-19T15:48:00.730Z,-0.20
2018-03-19T15:50:28.827Z,-0.10
2018-03-19T15:52:56.319Z,-0.10
2018-03-19T15:55:22.824Z,-0.20
2018-03-19T15:57:49.256Z,-0.20
2018-03-19T16:00:15.742Z,-0.10
2018-03-19T16:02:42.911Z,-0.20
2018-03-19T16:05:10.220Z,-0.20
2018-03-19T16:07:36.883Z,-0.60
2018-03-19T16:10:03.413Z,-0.40
2018-03-19T16:12:29.878Z,-0.30
2018-03-19T16:14:56.278Z,-0.60
2018-03-19T16:17:22.759Z,-0.40
2018-03-19T16:19:49.265Z,-0.50
2018-03-19T16:22:15.754Z,-0.50
2018-03-19T16:24:42.100Z,-0.70
2018-03-19T16:27:10.115Z,-0.70
2018-03-19T16:29:36.646Z,-0.70
2018-03-19T16:32:03.095Z,-0.80
2018-03-19T16:34:29.520Z,-1.00
2018-03-19T16:36:55.975Z,-1.00
2018-03-19T16:39:22.415Z,-1.20
2018-03-19T16:41:48.852Z,-1.10
2018-03-19T16:44:15.343Z,-1.00
2018-03-19T16:46:41.748Z,-0.80
2018-03-19T16:49:10.392Z,-0.90
2018-03-19T16:51:37.865Z,-1.20
2018-03-19T16:54:04.263Z,-1.00
2018-03-19T16:56:30.752Z,-1.00
2018-03-19T16:58:58.224Z,-0.90
2018-03-19T17:01:24.782Z,-1.00
2018-03-19T17:03:52.205Z,-1.00
2018-03-19T17:06:18.570Z,-0.90
2018-03-19T17:08:45.030Z,-0.90
2018-03-19T17:11:11.557Z,-0.90
2018-03-19T17:13:39.391Z,-0.90
2018-03-19T17:16:05.834Z,-0.90
2018-03-19T17:18:32.302Z,-1.00
2018-03-19T17:20:58.808Z,-1.20
2018-03-19T17:23:26.257Z,-1.20
2018-03-19T17:25:53.734Z,-1.20
2018-03-19T17:28:20.191Z,-1.20
2018-03-19T17:30:46.603Z,-1.10
2018-03-19T17:33:13.137Z,-1.00
2018-03-19T17:35:41.450Z,-1.10
2018-03-19T17:38:09.321Z,-1.10
2018-03-19T17:40:35.780Z,-1.00
2018-03-19T17:43:03.042Z,-1.10
2018-03-19T17:45:30.271Z,-1.30
2018-03-19T17:47:56.845Z,-1.30
2018-03-19T17:50:24.412Z,-1.30
2018-03-19T17:52:50.858Z,-1.30
2018-03-19T17:55:17.370Z,-1.20
2018-03-19T17:57:44.016Z,-1.20
2018-03-19T18:00:11.277Z,-1.00
2018-03-19T18:02:39.621Z,-1.10
2018-03-19T18:05:06.361Z,-1.10
2018-03-19T18:07:34.964Z,-1.10
2018-03-19T18:10:01.578Z,-1.20
2018-03-19T18:12:30.234Z,-1.10
2018-03-19T18:14:56.625Z,-1.20
2018-03-19T18:17:23.116Z,-1.30
2018-03-19T18:19:51.230Z,-1.40
2018-03-19T18:22:17.765Z,-1.40
2018-03-19T18:24:44.250Z,-1.40
2018-03-19T18:27:10.786Z,-1.40
2018-03-19T18:29:37.228Z,-1.40
2018-03-19T18:32:04.751Z,-1.40
2018-03-19T18:34:31.180Z,-1.50
2018-03-19T18:36:57.654Z,-1.70
2018-03-19T18:39:25.132Z,-1.60
2018-03-19T18:41:51.711Z,-1.60
2018-03-19T18:44:18.219Z,-1.60
2018-03-19T18:46:44.679Z,-1.60
2018-03-19T18:49:11.468Z,-1.80
2018-03-19T18:51:39.900Z,-1.70
2018-03-19T18:54:06.828Z,-1.70
2018-03-19T18:56:33.404Z,-1.60
2018-03-19T18:59:00.934Z,-1.60
2018-03-19T19:01:27.810Z,-1.70
2018-03-19T19:03:54.234Z,-1.60
2018-03-19T19:06:21.396Z,-1.60
2018-03-19T19:08:47.795Z,-1.60
2018-03-19T19:11:14.210Z,-1.70
2018-03-19T19:13:43.868Z,-1.70
2018-03-19T19:16:11.398Z,-1.60
2018-03-19T19:18:37.877Z,-1.50
2018-03-19T19:21:04.326Z,-1.50
2018-03-19T19:23:30.710Z,-1.60
2018-03-19T19:25:57.129Z,-1.60
2018-03-19T19:28:23.606Z,-1.60
2018-03-19T19:30:50.836Z,-1.80
2018-03-19T19:33:17.964Z,-1.80
2018-03-19T19:35:44.568Z,-1.80
2018-03-19T19:38:11.208Z,-1.70
2018-03-19T19:40:37.633Z,-1.90
2018-03-19T19:43:04.021Z,-1.90
2018-03-19T19:45:30.453Z,-1.90
2018-03-19T19:47:56.887Z,-1.80
2018-03-19T19:50:24.417Z,-1.70
2018-03-19T19:52:50.857Z,-1.80
2018-03-19T19:55:17.282Z,-1.80
2018-03-19T19:57:43.891Z,-1.80
2018-03-19T20:00:10.385Z,-1.70
2018-03-19T20:02:37.273Z,-1.70
2018-03-19T20:05:05.422Z,-1.80
2018-03-19T20:07:31.823Z,-1.80
2018-03-19T20:09:58.251Z,-1.90
2018-03-19T20:12:25.454Z,-1.90
2018-03-19T20:14:51.824Z,-2.00
2018-03-19T20:17:18.463Z,-1.80
2018-03-19T20:19:45.621Z,-1.70
2018-03-19T20:22:12.175Z,-1.80
2018-03-19T20:25:02.952Z,-1.80
2018-03-19T20:27:29.446Z,-1.80
2018-03-19T20:30:10.473Z,-1.70
2018-03-19T20:32:36.930Z,-1.60
2018-03-19T20:35:03.529Z,-1.70
2018-03-19T20:37:30.110Z,-1.60
2018-03-19T20:39:56.514Z,-1.50
2018-03-19T20:42:23.722Z,-1.50
2018-03-19T20:44:50.153Z,-1.50
2018-03-19T20:47:18.300Z,-1.50
2018-03-19T20:49:45.439Z,-1.60
2018-03-19T20:52:12.631Z,-1.70
2018-03-19T20:54:40.140Z,-1.80
2018-03-19T20:57:07.634Z,-1.70
2018-03-19T20:59:34.034Z,-1.70
2018-03-19T21:04:53.115Z,-1.50
2018-03-19T21:07:20.304Z,-1.60
2018-03-19T21:09:47.408Z,-1.60
2018-03-19T21:12:13.965Z,-1.60
2018-03-19T21:14:41.928Z,-1.40
2018-03-19T21:17:09.830Z,-1.40
2018-03-19T21:19:36.213Z,-1.40
2018-03-19T21:22:02.678Z,-1.40
2018-03-19T21:24:29.297Z,-1.40
2018-03-19T21:26:56.717Z,-1.50
2018-03-19T21:29:23.117Z,-1.50
2018-03-19T21:31:50.532Z,-1.40
2018-03-19T21:34:16.962Z,-1.40
2018-03-19T21:36:43.435Z,-1.40
2018-03-19T21:39:11.679Z,-1.30
2018-03-19T21:41:39.784Z,-1.40
2018-03-19T21:44:08.037Z,-1.30
2018-03-19T21:46:34.534Z,-1.30
2018-03-19T21:49:00.955Z,-1.40
2018-03-19T21:51:27.388Z,-1.50
2018-03-19T21:53:53.775Z,-1.40
2018-03-19T21:56:20.204Z,-1.50
2018-03-19T21:58:48.347Z,-1.50
2018-03-19T22:01:14.873Z,-1.50
2018-03-19T22:03:41.362Z,-1.50
2018-03-19T22:06:07.775Z,-1.50
2018-03-19T22:08:34.918Z,-1.60
2018-03-19T22:11:02.154Z,-1.60
2018-03-19T22:13:28.604Z,-1.60
2018-03-19T22:15:55.056Z,-1.60
2018-03-19T22:18:22.287Z,-1.60
2018-03-19T22:20:49.534Z,-1.60
2018-03-19T22:23:16.679Z,-1.60
2018-03-19T22:25:43.144Z,-1.60
2018-03-19T22:28:10.587Z,-1.50
2018-03-19T22:30:37.776Z,-1.80
2018-03-19T22:33:05.274Z,-1.60
2018-03-19T22:35:32.437Z,-1.60
2018-03-19T22:37:58.888Z,-1.60
2018-03-19T22:40:28.094Z,-1.70
2018-03-19T22:42:55.247Z,-1.70
2018-03-19T22:45:22.403Z,-1.80
2018-03-19T22:47:48.798Z,-1.80
2018-03-19T22:50:15.229Z,-1.90
2018-03-19T22:52:41.840Z,-1.80
2018-03-19T22:55:08.231Z,-1.80
2018-03-19T22:57:36.425Z,-1.90
2018-03-19T23:00:02.913Z,-1.90
2018-03-19T23:02:30.424Z,-1.90
2018-03-19T23:08:01.915Z,-2.10
2018-03-19T23:10:29.484Z,-2.10
2018-03-19T23:12:57.988Z,-2.10
2018-03-19T23:15:26.318Z,-2.10
2018-03-19T23:17:54.663Z,-2.10
2018-03-19T23:20:22.243Z,-2.10
2018-03-19T23:22:49.847Z,-2.00
2018-03-19T23:25:17.466Z,-2.00
2018-03-19T23:27:45.159Z,-2.00
2018-03-19T23:30:13.474Z,-2.00
2018-03-19T23:32:41.757Z,-2.00
2018-03-19T23:35:10.813Z,-2.00
2018-03-19T23:37:38.415Z,-2.10
2018-03-19T23:40:05.959Z,-2.10
2018-03-19T23:42:33.507Z,-2.10
2018-03-19T23:45:01.094Z,-2.30
2018-03-19T23:47:29.430Z,-2.30
2018-03-19T23:49:57.045Z,-2.40
2018-03-19T23:52:24.655Z,-2.30
2018-03-19T23:54:52.257Z,-2.30
2018-03-19T23:57:19.995Z,-2.20
2018-03-19T23:59:47.562Z,-2.20
